Time;durP1;ratioP1;P1;durP2;ratioP2;P2;SDS_P1;SDS_P2;PMS_P1;PMS_P2;Temp;Humidity;BMP_temperature;BMP_pressure;BME280_temperature;BME280_humidity;BME280_pressure;Samples;Min_cycle;Max_cycle;Signal;HPM_P1;HPM_P2
2022/07/10 00:00:06;;;;;;;2.63;1.80;;;15.10;99.90;;;;;;5068815;28;20456;-61
2022/07/10 00:02:31;;;;;;;10.00;2.15;;;15.00;99.90;;;;;;5068740;28;20017;-60
2022/07/10 00:04:57;;;;;;;4.07;1.77;;;15.00;99.90;;;;;;5068084;28;20424;-61
2022/07/10 00:07:22;;;;;;;6.78;2.15;;;14.90;99.90;;;;;;5068942;28;20029;-61
2022/07/10 00:09:48;;;;;;;4.70;2.03;;;14.90;99.90;;;;;;5069086;28;20052;-61
2022/07/10 00:12:13;;;;;;;4.47;2.10;;;14.90;99.90;;;;;;5068309;28;20055;-59
2022/07/10 00:14:39;;;;;;;7.75;1.58;;;14.80;99.90;;;;;;5072055;28;20067;-61
2022/07/10 00:17:04;;;;;;;6.28;2.00;;;14.80;99.90;;;;;;5072664;28;20048;-61
2022/07/10 00:19:30;;;;;;;7.85;1.80;;;14.70;99.90;;;;;;5072637;28;20060;-60
2022/07/10 00:21:56;;;;;;;7.10;1.58;;;14.60;99.90;;;;;;5071319;28;20500;-60
2022/07/10 00:24:21;;;;;;;5.35;1.65;;;14.60;99.90;;;;;;5072025;28;20030;-60
2022/07/10 00:26:47;;;;;;;2.90;1.42;;;14.60;99.90;;;;;;5072580;28;20037;-60
2022/07/10 00:29:14;;;;;;;6.60;1.85;;;14.60;99.90;;;;;;5071115;28;20090;-58
2022/07/10 00:31:39;;;;;;;5.45;1.55;;;14.50;99.90;;;;;;5054296;28;20017;-60
2022/07/10 00:34:06;;;;;;;6.93;1.70;;;14.50;99.90;;;;;;5052293;28;20032;-61
2022/07/10 00:36:31;;;;;;;3.50;1.65;;;14.50;99.90;;;;;;5066000;28;20049;-59
2022/07/10 00:38:57;;;;;;;3.75;1.40;;;14.50;99.90;;;;;;5072555;28;20063;-59
2022/07/10 00:41:22;;;;;;;4.80;1.52;;;14.40;99.90;;;;;;5072156;28;20111;-61
2022/07/10 00:43:57;;;;;;;2.88;1.23;;;14.40;99.90;;;;;;5072324;28;20399;-61
2022/07/10 00:46:24;;;;;;;6.93;1.80;;;14.40;99.90;;;;;;5072198;28;20021;-60
2022/07/10 00:48:49;;;;;;;4.55;1.83;;;14.40;99.90;;;;;;5071977;28;20060;-60
2022/07/10 00:51:17;;;;;;;9.45;2.13;;;14.40;99.90;;;;;;5052094;28;20052;-60
2022/07/10 00:53:45;;;;;;;10.32;2.45;;;14.30;99.90;;;;;;5053331;28;20029;-58
2022/07/10 00:56:12;;;;;;;5.57;1.75;;;14.30;99.90;;;;;;5052052;28;20017;-60
2022/07/10 00:58:39;;;;;;;7.28;1.85;;;14.20;99.90;;;;;;5052092;28;20028;-60
2022/07/10 01:01:05;;;;;;;6.15;1.65;;;14.20;99.90;;;;;;5068290;28;20035;-59
2022/07/10 01:03:31;;;;;;;2.40;1.52;;;14.20;99.90;;;;;;5071633;28;20891;-60
2022/07/10 01:05:58;;;;;;;8.90;1.80;;;14.20;99.90;;;;;;5071886;28;20060;-59
2022/07/10 01:08:24;;;;;;;10.85;2.08;;;14.10;99.90;;;;;;5071723;28;20028;-58
2022/07/10 01:10:50;;;;;;;8.57;1.88;;;14.10;99.90;;;;;;5072049;28;20020;-60
2022/07/10 01:13:15;;;;;;;6.03;1.75;;;14.10;99.90;;;;;;5071493;28;20376;-60
2022/07/10 01:15:41;;;;;;;3.33;1.58;;;14.00;99.90;;;;;;5070552;28;20043;-59
2022/07/10 01:18:07;;;;;;;4.28;1.65;;;14.00;99.90;;;;;;5071664;28;20025;-60
2022/07/10 01:20:33;;;;;;;4.03;1.50;;;14.00;99.90;;;;;;5071886;28;20021;-60
2022/07/10 01:23:00;;;;;;;8.02;1.52;;;14.00;99.90;;;;;;5071239;28;20025;-59
2022/07/10 01:25:25;;;;;;;4.55;1.80;;;14.00;99.90;;;;;;5071760;28;20024;-60
2022/07/10 01:27:51;;;;;;;8.85;1.75;;;14.00;99.90;;;;;;5070146;28;20482;-60
2022/07/10 01:30:20;;;;;;;2.00;1.33;;;14.00;99.90;;;;;;5071539;28;20029;-61
2022/07/10 01:32:47;;;;;;;5.25;1.70;;;14.00;99.90;;;;;;5070732;28;20040;-60
2022/07/10 01:35:12;;;;;;;8.25;1.60;;;14.00;99.90;;;;;;5071461;28;20070;-61
2022/07/10 01:37:40;;;;;;;1.83;1.30;;;13.90;99.90;;;;;;5071523;28;20024;-61
2022/07/10 01:40:06;;;;;;;4.97;1.52;;;13.90;99.90;;;;;;5071195;28;20029;-61
2022/07/10 01:42:32;;;;;;;9.32;2.20;;;13.90;99.90;;;;;;5071413;28;20017;-60
2022/07/10 01:44:58;;;;;;;5.20;2.10;;;13.90;99.90;;;;;;5071256;28;20078;-60
2022/07/10 01:47:27;;;;;;;6.18;1.50;;;13.90;99.90;;;;;;5070833;28;20032;-60
2022/07/10 01:49:53;;;;;;;5.30;1.80;;;13.90;99.90;;;;;;5071615;28;20032;-61
2022/07/10 01:52:20;;;;;;;9.52;2.00;;;13.90;99.90;;;;;;5070484;28;20427;-61
2022/07/10 01:54:46;;;;;;;3.15;1.45;;;13.90;99.90;;;;;;5071146;28;20033;-59
2022/07/10 01:57:13;;;;;;;7.13;1.55;;;13.90;99.90;;;;;;5071273;28;20077;-61
2022/07/10 01:59:40;;;;;;;4.10;1.38;;;14.00;99.90;;;;;;5071167;28;20128;-61
2022/07/10 02:02:06;;;;;;;5.30;1.50;;;14.00;99.90;;;;;;5070067;28;20033;-59
2022/07/10 02:04:41;;;;;;;6.43;1.65;;;13.90;99.90;;;;;;5070859;28;20029;-60
2022/07/10 02:07:11;;;;;;;8.27;1.60;;;14.00;99.90;;;;;;5070386;28;20032;-62
2022/07/10 02:09:41;;;;;;;10.52;1.90;;;14.00;99.90;;;;;;5070873;28;20134;-61
2022/07/10 02:12:11;;;;;;;6.63;1.60;;;14.00;99.90;;;;;;5070446;28;20055;-61
2022/07/10 02:14:37;;;;;;;6.10;1.52;;;14.00;99.90;;;;;;5070327;28;20028;-59
2022/07/10 02:17:06;;;;;;;3.15;1.60;;;14.00;99.90;;;;;;5070064;28;20041;-58
2022/07/10 02:19:32;;;;;;;7.70;1.70;;;14.00;99.90;;;;;;5070966;28;20052;-60
2022/07/10 02:21:58;;;;;;;4.55;1.58;;;14.00;99.90;;;;;;5066874;28;20115;-59
2022/07/10 02:24:24;;;;;;;4.60;1.40;;;14.00;99.90;;;;;;5070421;28;20032;-59
2022/07/10 02:26:49;;;;;;;8.85;1.70;;;14.00;99.90;;;;;;5069610;28;20042;-58
2022/07/10 02:29:15;;;;;;;2.97;1.35;;;14.10;99.90;;;;;;5070448;28;20058;-59
2022/07/10 02:31:41;;;;;;;6.50;2.00;;;14.10;99.90;;;;;;5069314;28;20025;-58
2022/07/10 02:34:08;;;;;;;7.75;1.98;;;14.10;99.90;;;;;;5069976;28;20029;-59
2022/07/10 02:36:34;;;;;;;6.88;1.67;;;14.10;99.90;;;;;;5069569;28;20034;-61
2022/07/10 02:39:00;;;;;;;8.25;1.85;;;14.10;99.90;;;;;;5070394;28;20031;-58
2022/07/10 02:41:26;;;;;;;11.27;1.70;;;14.10;99.90;;;;;;5069358;28;20023;-59
2022/07/10 02:43:52;;;;;;;8.98;1.73;;;14.20;99.90;;;;;;5069766;28;20037;-59
2022/07/10 02:46:17;;;;;;;10.13;1.80;;;14.20;99.90;;;;;;5069750;28;20032;-58
2022/07/10 02:48:43;;;;;;;6.50;1.50;;;14.20;99.90;;;;;;5070143;28;20071;-60
2022/07/10 02:51:08;;;;;;;7.75;1.55;;;14.30;99.90;;;;;;5070111;28;20029;-59
2022/07/10 02:53:34;;;;;;;3.45;1.20;;;14.30;99.90;;;;;;5069520;28;20029;-59
2022/07/10 02:55:59;;;;;;;6.38;1.80;;;14.20;99.90;;;;;;5069325;28;20020;-60
2022/07/10 02:58:25;;;;;;;4.75;1.48;;;14.20;99.90;;;;;;5069868;28;20025;-61
2022/07/10 03:00:51;;;;;;;9.93;1.95;;;14.20;99.90;;;;;;5069989;28;20442;-60
2022/07/10 03:03:17;;;;;;;4.60;1.52;;;14.10;99.90;;;;;;5069102;28;20036;-59
2022/07/10 03:05:44;;;;;;;8.50;1.63;;;14.10;99.90;;;;;;5070424;28;20066;-60
2022/07/10 03:08:10;;;;;;;4.22;1.55;;;14.10;99.90;;;;;;5069567;28;20028;-59
2022/07/10 03:10:35;;;;;;;6.93;2.20;;;14.10;99.90;;;;;;5069244;28;20519;-60
2022/07/10 03:13:01;;;;;;;6.32;1.55;;;14.10;99.90;;;;;;5069796;28;20498;-59
2022/07/10 03:15:27;;;;;;;4.90;1.55;;;14.10;99.90;;;;;;5069249;28;20499;-61
2022/07/10 03:17:53;;;;;;;4.60;1.58;;;14.10;99.90;;;;;;5069845;28;20027;-59
2022/07/10 03:20:18;;;;;;;4.95;1.55;;;14.10;99.90;;;;;;5069836;28;20025;-58
2022/07/10 03:22:44;;;;;;;5.20;1.80;;;14.10;99.90;;;;;;5069078;28;20083;-59
2022/07/10 03:25:09;;;;;;;8.20;1.73;;;14.10;99.90;;;;;;5069601;28;20039;-60
2022/07/10 03:27:35;;;;;;;5.35;1.58;;;14.20;99.90;;;;;;5069312;28;20040;-58
2022/07/10 03:30:01;;;;;;;7.53;1.70;;;14.20;99.90;;;;;;5069779;28;20099;-61
2022/07/10 03:32:26;;;;;;;5.40;1.50;;;14.20;99.90;;;;;;5069197;28;20032;-62
2022/07/10 03:34:52;;;;;;;6.70;1.63;;;14.20;99.90;;;;;;5069493;28;20071;-61
2022/07/10 03:37:18;;;;;;;11.25;1.80;;;14.20;99.90;;;;;;5069249;28;20652;-60
2022/07/10 03:39:43;;;;;;;4.70;1.85;;;14.20;99.90;;;;;;5069343;28;20467;-61
2022/07/10 03:42:09;;;;;;;9.98;2.55;;;14.20;99.90;;;;;;5068953;28;20350;-61
2022/07/10 03:44:34;;;;;;;5.18;1.50;;;14.20;99.90;;;;;;5069927;28;20020;-61
2022/07/10 03:47:00;;;;;;;10.05;2.00;;;14.20;99.90;;;;;;5068943;28;20055;-61
2022/07/10 03:49:26;;;;;;;3.97;1.73;;;14.20;99.90;;;;;;5072224;28;20032;-60
2022/07/10 03:51:51;;;;;;;13.30;2.20;;;14.30;99.90;;;;;;5073809;28;20024;-61
2022/07/10 03:54:17;;;;;;;5.13;1.58;;;14.30;99.90;;;;;;5073138;28;20032;-59
2022/07/10 03:59:27;;;;;;;4.00;1.30;;;14.30;99.90;;;;;;5073525;28;20028;-59
2022/07/10 04:01:53;;;;;;;5.05;1.80;;;14.30;99.90;;;;;;5072183;28;20028;-60
2022/07/10 04:04:18;;;;;;;3.05;1.35;;;14.30;99.90;;;;;;5073073;28;20057;-60
2022/07/10 04:06:44;;;;;;;8.93;2.03;;;14.30;99.90;;;;;;5072878;28;20047;-59
2022/07/10 04:09:10;;;;;;;3.92;1.75;;;14.30;99.90;;;;;;5072644;28;20035;-57
2022/07/10 04:11:35;;;;;;;8.85;1.73;;;14.40;99.90;;;;;;5072688;28;20358;-61
2022/07/10 04:14:01;;;;;;;6.97;1.95;;;14.40;99.90;;;;;;5072913;28;20029;-60
2022/07/10 04:16:26;;;;;;;7.07;1.75;;;14.40;99.90;;;;;;5072496;28;20024;-59
2022/07/10 04:18:52;;;;;;;6.50;1.70;;;14.40;99.90;;;;;;5072393;28;20024;-60
2022/07/10 04:21:18;;;;;;;5.68;1.85;;;14.40;99.90;;;;;;5072465;28;20024;-60
2022/07/10 04:23:44;;;;;;;7.85;2.38;;;14.40;99.90;;;;;;5069472;28;20031;-61
2022/07/10 04:26:09;;;;;;;5.65;1.73;;;14.50;99.90;;;;;;5072564;28;20037;-60
2022/07/10 04:28:35;;;;;;;7.75;1.92;;;14.50;99.90;;;;;;5097801;22;20036;-57
2022/07/10 04:31:00;;;;;;;4.95;2.03;;;14.50;99.90;;;;;;5072172;28;20127;-59
2022/07/10 04:33:26;;;;;;;3.80;1.63;;;14.40;99.90;;;;;;5072559;28;20055;-56
2022/07/10 04:35:51;;;;;;;10.75;2.22;;;14.40;99.90;;;;;;5072866;28;20029;-57
2022/07/10 04:38:17;;;;;;;14.27;2.03;;;14.40;99.90;;;;;;5072594;28;20029;-59
2022/07/10 04:40:43;;;;;;;4.25;1.67;;;14.40;99.90;;;;;;5072937;28;20028;-59
2022/07/10 04:43:10;;;;;;;11.45;2.88;;;14.40;99.90;;;;;;5072686;28;20505;-57
2022/07/10 04:45:37;;;;;;;9.90;2.05;;;14.50;99.90;;;;;;5072983;28;20025;-58
2022/07/10 04:48:04;;;;;;;7.93;1.80;;;14.50;99.90;;;;;;5072861;28;20096;-59
2022/07/10 04:50:30;;;;;;;10.25;2.08;;;14.50;99.90;;;;;;5072208;28;20024;-59
2022/07/10 04:52:56;;;;;;;7.43;1.90;;;14.50;99.90;;;;;;5072696;28;20039;-59
2022/07/10 04:55:22;;;;;;;7.78;2.40;;;14.50;99.90;;;;;;5071995;28;20029;-58
2022/07/10 04:57:47;;;;;;;7.18;1.63;;;14.50;99.90;;;;;;5072399;28;20048;-58
2022/07/10 05:00:14;;;;;;;10.15;1.98;;;14.40;99.90;;;;;;5043150;28;20099;-59
2022/07/10 05:02:39;;;;;;;4.13;1.88;;;14.50;99.90;;;;;;5052031;28;20025;-59
2022/07/10 05:05:05;;;;;;;2.88;1.40;;;14.50;99.90;;;;;;5052299;28;20036;-58
2022/07/10 05:07:31;;;;;;;17.42;2.35;;;14.50;99.90;;;;;;5052317;28;20071;-59
2022/07/10 05:09:56;;;;;;;4.40;1.92;;;14.50;99.90;;;;;;5071769;28;20025;-59
2022/07/10 05:12:22;;;;;;;7.05;1.52;;;14.50;99.90;;;;;;5072179;28;20513;-59
2022/07/10 05:14:47;;;;;;;9.65;2.10;;;14.50;99.90;;;;;;5072024;28;20040;-59
2022/07/10 05:17:13;;;;;;;4.07;1.83;;;14.40;99.90;;;;;;5072301;28;20016;-59
2022/07/10 05:19:38;;;;;;;7.72;2.50;;;14.50;99.90;;;;;;5072065;28;20027;-59
2022/07/10 05:22:04;;;;;;;3.97;1.65;;;14.50;99.90;;;;;;5071767;28;20037;-60
2022/07/10 05:24:29;;;;;;;7.88;2.22;;;14.50;99.90;;;;;;5071353;28;20030;-59
2022/07/10 05:26:55;;;;;;;6.70;2.47;;;14.60;99.90;;;;;;5071743;28;20175;-58
2022/07/10 05:29:20;;;;;;;5.60;2.22;;;14.60;99.90;;;;;;5071853;28;20056;-59
2022/07/10 05:31:46;;;;;;;8.75;2.28;;;14.70;99.90;;;;;;5071151;28;20039;-58
2022/07/10 05:34:11;;;;;;;8.55;2.03;;;14.70;99.90;;;;;;5071874;28;20028;-57
2022/07/10 05:36:37;;;;;;;7.38;2.30;;;14.80;99.90;;;;;;5071810;28;20024;-57
2022/07/10 05:39:02;;;;;;;9.13;2.10;;;14.80;99.90;;;;;;5071132;28;20502;-57
2022/07/10 05:41:28;;;;;;;5.78;2.25;;;14.90;99.90;;;;;;5071377;28;20043;-57
2022/07/10 05:43:54;;;;;;;5.50;1.77;;;14.90;99.90;;;;;;5072009;28;20033;-58
2022/07/10 05:46:19;;;;;;;5.35;2.00;;;14.90;99.90;;;;;;5071332;28;20056;-58
2022/07/10 05:48:45;;;;;;;11.23;2.28;;;15.00;99.90;;;;;;5071353;28;20032;-55
2022/07/10 05:51:11;;;;;;;5.88;1.80;;;15.00;99.90;;;;;;5071034;28;20046;-58
2022/07/10 05:53:37;;;;;;;6.57;1.88;;;15.00;99.90;;;;;;5070720;28;20021;-57
2022/07/10 05:56:02;;;;;;;5.15;1.65;;;15.10;99.90;;;;;;5070978;28;20036;-56
2022/07/10 05:58:29;;;;;;;4.47;1.80;;;15.10;99.90;;;;;;5070591;28;20033;-56
2022/07/10 06:00:55;;;;;;;2.17;1.55;;;15.20;99.90;;;;;;5071269;28;20043;-59
2022/07/10 06:03:21;;;;;;;7.78;2.00;;;15.20;99.90;;;;;;5071176;28;20657;-57
2022/07/10 06:05:47;;;;;;;5.55;1.50;;;15.30;99.90;;;;;;5071109;28;20382;-59
2022/07/10 06:08:12;;;;;;;5.13;1.60;;;15.30;99.90;;;;;;5071268;28;20103;-55
2022/07/10 06:10:40;;;;;;;9.63;2.05;;;15.40;99.90;;;;;;5069945;28;20021;-56
2022/07/10 06:13:06;;;;;;;11.60;1.73;;;15.50;99.90;;;;;;5070970;28;20040;-57
2022/07/10 06:15:31;;;;;;;4.72;1.75;;;15.50;99.90;;;;;;5070562;28;20468;-57
2022/07/10 06:18:00;;;;;;;10.77;2.05;;;15.70;99.90;;;;;;5071337;28;20021;-57
2022/07/10 06:20:26;;;;;;;6.18;2.15;;;15.80;99.90;;;;;;5070482;28;20067;-58
2022/07/10 06:22:51;;;;;;;6.70;1.90;;;15.90;99.90;;;;;;5070619;28;20048;-58
2022/07/10 06:25:17;;;;;;;9.20;1.85;;;15.90;99.90;;;;;;5070501;28;20795;-58
2022/07/10 06:27:43;;;;;;;8.10;1.63;;;15.90;99.90;;;;;;5070528;28;20397;-55
2022/07/10 06:30:09;;;;;;;6.03;1.45;;;15.80;99.90;;;;;;5070375;28;20074;-58
2022/07/10 06:32:34;;;;;;;8.48;1.75;;;15.80;99.90;;;;;;5072860;28;20115;-58
2022/07/10 06:35:00;;;;;;;5.63;1.95;;;15.80;99.90;;;;;;5069977;28;20116;-58
2022/07/10 06:37:26;;;;;;;6.63;1.60;;;15.80;99.90;;;;;;5070291;28;20107;-59
2022/07/10 06:39:51;;;;;;;6.72;1.52;;;15.80;99.90;;;;;;5070399;28;20024;-58
2022/07/10 06:42:17;;;;;;;9.13;2.00;;;15.80;99.90;;;;;;5070149;28;20016;-58
2022/07/10 06:44:43;;;;;;;3.42;1.30;;;15.80;99.90;;;;;;5070751;28;20025;-58
2022/07/10 06:49:55;;;;;;;7.72;1.58;;;15.90;99.90;;;;;;5070046;28;20063;-58
2022/07/10 06:52:21;;;;;;;6.75;1.60;;;16.00;99.90;;;;;;5070039;28;20020;-60
2022/07/10 06:54:46;;;;;;;6.25;1.70;;;16.00;99.90;;;;;;5069485;28;20115;-58
2022/07/10 06:57:12;;;;;;;10.63;2.08;;;16.00;99.90;;;;;;5070342;28;20429;-59
2022/07/10 06:59:38;;;;;;;8.32;1.75;;;16.20;99.90;;;;;;5069969;28;20017;-58
2022/07/10 07:02:04;;;;;;;8.25;1.80;;;16.20;99.90;;;;;;5057935;28;20506;-58
2022/07/10 07:04:30;;;;;;;5.40;2.00;;;16.30;99.90;;;;;;5050180;28;20450;-59
2022/07/10 07:06:55;;;;;;;7.97;1.73;;;16.30;99.90;;;;;;5050155;28;20033;-59
2022/07/10 07:09:21;;;;;;;7.10;2.28;;;16.30;99.90;;;;;;5064763;28;20486;-58
2022/07/10 07:11:46;;;;;;;7.03;2.30;;;16.20;99.90;;;;;;5069775;28;20079;-59
2022/07/10 07:14:12;;;;;;;7.75;2.72;;;16.20;99.90;;;;;;5070048;28;20029;-59
2022/07/10 07:16:39;;;;;;;8.48;2.17;;;16.20;99.90;;;;;;5069863;28;20051;-59
2022/07/10 07:19:05;;;;;;;8.70;2.13;;;16.10;99.90;;;;;;5070106;28;20044;-58
2022/07/10 07:24:18;;;;;;;;;;;16.10;99.90;;;;;;5070560;28;20402;-57
2022/07/10 07:26:44;;;;;;;7.60;2.13;;;16.10;99.90;;;;;;5070094;28;19904;-59
2022/07/10 07:29:10;;;;;;;4.45;2.30;;;16.20;99.90;;;;;;5070128;28;20029;-58
2022/07/10 07:31:36;;;;;;;11.10;2.05;;;16.20;99.90;;;;;;5069873;28;20024;-58
2022/07/10 07:34:01;;;;;;;3.90;2.13;;;16.20;99.90;;;;;;5069901;28;20037;-59
2022/07/10 07:36:27;;;;;;;4.50;1.73;;;16.30;99.90;;;;;;5069450;28;20096;-59
2022/07/10 07:38:52;;;;;;;10.70;2.45;;;16.30;99.90;;;;;;5069979;28;20162;-60
2022/07/10 07:41:18;;;;;;;6.70;2.47;;;16.20;99.90;;;;;;5069943;28;20032;-58
2022/07/10 07:43:43;;;;;;;6.75;2.05;;;16.20;99.90;;;;;;5070189;28;20031;-60
2022/07/10 07:46:09;;;;;;;7.50;2.17;;;16.20;99.90;;;;;;5071111;28;20453;-61
2022/07/10 07:48:35;;;;;;;7.63;2.22;;;16.30;99.90;;;;;;5071000;28;20025;-60
2022/07/10 07:51:00;;;;;;;11.30;2.33;;;16.30;99.90;;;;;;5071182;28;20020;-61
2022/07/10 07:53:26;;;;;;;9.73;1.83;;;16.30;99.90;;;;;;5070420;28;20347;-61
2022/07/10 07:55:52;;;;;;;10.20;2.13;;;16.30;99.90;;;;;;5071044;28;20427;-58
2022/07/10 07:58:17;;;;;;;8.02;2.22;;;16.30;99.90;;;;;;5070734;28;20372;-57
2022/07/10 08:00:43;;;;;;;5.88;1.95;;;16.30;99.90;;;;;;5071027;28;20039;-60
2022/07/10 08:03:08;;;;;;;6.55;2.40;;;16.30;99.90;;;;;;5070909;28;20103;-59
2022/07/10 08:05:34;;;;;;;10.73;3.00;;;16.30;99.90;;;;;;5070838;28;20528;-59
2022/07/10 08:08:04;;;;;;;12.35;2.15;;;16.30;99.90;;;;;;5070547;28;20025;-60
2022/07/10 08:10:30;;;;;;;8.40;2.13;;;16.20;99.90;;;;;;5070837;28;20024;-58
2022/07/10 08:12:56;;;;;;;9.00;1.90;;;16.30;99.90;;;;;;5070479;28;20550;-60
2022/07/10 08:15:22;;;;;;;8.43;2.08;;;16.50;99.90;;;;;;5070774;28;20188;-59
2022/07/10 08:17:50;;;;;;;5.20;1.98;;;16.60;99.90;;;;;;5070911;28;20593;-60
2022/07/10 08:20:16;;;;;;;5.43;1.70;;;16.70;99.90;;;;;;5070770;28;20390;-60
2022/07/10 08:22:42;;;;;;;7.05;2.55;;;16.80;99.90;;;;;;5069974;28;20036;-59
2022/07/10 08:25:10;;;;;;;3.42;2.08;;;16.60;99.90;;;;;;5072957;28;20028;-59
2022/07/10 08:27:36;;;;;;;5.40;2.45;;;16.60;99.90;;;;;;5070494;28;20028;-60
2022/07/10 08:30:02;;;;;;;5.60;2.65;;;16.50;99.90;;;;;;5070636;28;20421;-60
2022/07/10 08:32:28;;;;;;;11.40;2.35;;;16.50;99.90;;;;;;5070432;28;20096;-59
2022/07/10 08:34:54;;;;;;;15.13;2.83;;;16.50;99.90;;;;;;5072562;28;20118;-59
2022/07/10 08:37:19;;;;;;;6.05;2.30;;;16.50;99.90;;;;;;5073862;28;20032;-59
2022/07/10 08:39:45;;;;;;;7.03;2.50;;;16.50;99.90;;;;;;5073717;28;20032;-58
2022/07/10 08:42:11;;;;;;;5.05;2.10;;;16.60;99.90;;;;;;5073766;28;20403;-59
2022/07/10 08:44:37;;;;;;;6.68;2.47;;;16.60;99.90;;;;;;5074054;28;20024;-58
2022/07/10 08:47:03;;;;;;;9.13;2.83;;;16.60;99.90;;;;;;5074027;28;20108;-58
2022/07/10 08:49:30;;;;;;;6.45;2.65;;;16.70;99.90;;;;;;5073979;28;20021;-60
2022/07/10 08:52:16;;;;;;;10.75;2.42;;;16.80;99.90;;;;;;5073606;28;20024;-60
2022/07/10 08:54:42;;;;;;;8.70;2.22;;;16.90;99.90;;;;;;5073789;28;20025;-56
2022/07/10 08:57:09;;;;;;;8.07;2.08;;;17.00;99.90;;;;;;5073725;28;20100;-60
2022/07/10 08:59:35;;;;;;;8.95;2.22;;;16.90;99.90;;;;;;5073832;28;20032;-58
2022/07/10 09:02:01;;;;;;;6.32;1.98;;;16.90;99.90;;;;;;5073434;28;20074;-58
2022/07/10 09:04:27;;;;;;;7.63;2.22;;;16.80;99.90;;;;;;5073508;28;20052;-58
2022/07/10 09:06:54;;;;;;;9.40;2.38;;;16.70;99.90;;;;;;5065590;28;20025;-58
2022/07/10 09:09:20;;;;;;;10.82;2.08;;;16.70;99.90;;;;;;5067375;28;20099;-56
2022/07/10 09:11:46;;;;;;;5.65;1.58;;;16.90;99.90;;;;;;5073300;28;20375;-59
2022/07/10 09:14:15;;;;;;;3.20;1.70;;;17.00;99.90;;;;;;5073528;28;20059;-57
2022/07/10 09:16:43;;;;;;;3.17;1.75;;;17.10;99.90;;;;;;5073558;28;20028;-60
2022/07/10 09:19:28;;;;;;;6.95;1.42;;;17.20;99.90;;;;;;5073457;28;20028;-59
2022/07/10 09:22:05;;;;;;;;;;;17.20;99.90;;;;;;5073698;28;20103;-60
2022/07/10 09:24:42;;;;;;;4.85;1.90;;;17.30;99.90;;;;;;5073104;28;19912;-58
2022/07/10 09:27:09;;;;;;;3.83;1.33;;;17.40;99.90;;;;;;5073208;28;20109;-55
2022/07/10 09:29:51;;;;;;;4.82;2.13;;;17.30;99.90;;;;;;5073294;28;20024;-58
2022/07/10 09:32:17;;;;;;;5.50;1.75;;;17.30;99.90;;;;;;5072809;28;20016;-58
2022/07/10 09:37:39;;;;;;;5.78;1.55;;;17.30;99.90;;;;;;5073329;28;20035;-58
2022/07/10 09:40:07;;;;;;;6.07;1.23;;;17.40;99.90;;;;;;5055083;28;20028;-58
2022/07/10 09:42:42;;;;;;;5.50;1.55;;;17.50;99.90;;;;;;5072762;28;20047;-56
2022/07/10 09:45:17;;;;;;;10.55;2.03;;;17.40;99.90;;;;;;5072490;28;20020;-58
2022/07/10 09:47:57;;;;;;;3.10;1.17;;;17.30;99.90;;;;;;5072208;28;20395;-58
2022/07/10 09:50:23;;;;;;;9.48;1.30;;;17.40;99.90;;;;;;5072742;28;20028;-59
2022/07/10 09:52:53;;;;;;;3.22;1.45;;;17.30;99.90;;;;;;5072385;28;20387;-59
2022/07/10 09:55:20;;;;;;;11.50;1.83;;;17.30;99.90;;;;;;5073004;28;20127;-59
2022/07/10 09:57:52;;;;;;;3.47;1.25;;;17.30;99.90;;;;;;5072677;28;20792;-60
2022/07/10 10:00:18;;;;;;;3.17;1.02;;;17.50;99.90;;;;;;5072546;28;20508;-59
2022/07/10 10:02:45;;;;;;;5.65;1.38;;;17.40;99.90;;;;;;5072165;28;20028;-58
2022/07/10 10:05:11;;;;;;;8.00;1.63;;;17.50;99.90;;;;;;5072454;28;20110;-58
2022/07/10 10:07:37;;;;;;;3.70;0.95;;;17.50;99.90;;;;;;5072493;28;20020;-58
2022/07/10 10:10:06;;;;;;;9.05;1.48;;;17.40;99.90;;;;;;5072557;28;20025;-58
2022/07/10 10:12:45;;;;;;;5.05;1.08;;;17.40;99.90;;;;;;5072109;28;20029;-58
2022/07/10 10:15:11;;;;;;;3.83;1.10;;;17.30;99.90;;;;;;5073153;28;20026;-59
2022/07/10 10:17:40;;;;;;;2.22;1.08;;;17.30;99.90;;;;;;5092508;28;20115;-57
2022/07/10 10:22:55;;;;;;;4.45;1.10;;;17.30;99.90;;;;;;5092630;28;20042;-59
2022/07/10 10:25:23;;;;;;;7.63;1.38;;;17.30;99.90;;;;;;5092446;28;20551;-58
2022/07/10 10:27:49;;;;;;;6.15;1.58;;;17.30;99.90;;;;;;5106585;22;20083;-61
2022/07/10 10:30:15;;;;;;;4.57;1.77;;;17.30;99.90;;;;;;5049943;28;20035;-61
2022/07/10 10:32:41;;;;;;;5.95;1.90;;;17.30;99.90;;;;;;5050124;28;20103;-60
2022/07/10 10:35:09;;;;;;;3.75;1.58;;;17.30;99.90;;;;;;5049805;28;20436;-61
2022/07/10 10:37:40;;;;;;;10.80;2.30;;;17.30;99.90;;;;;;5049859;28;20039;-60
2022/07/10 10:40:08;;;;;;;9.07;1.42;;;17.40;99.90;;;;;;5050576;28;20024;-62
2022/07/10 10:42:44;;;;;;;5.80;1.65;;;17.60;99.90;;;;;;5049917;28;20017;-62
2022/07/10 10:45:34;;;;;;;4.18;1.58;;;17.80;99.90;;;;;;5049769;28;20115;-59
2022/07/10 10:48:12;;;;;;;4.10;2.00;;;17.90;99.90;;;;;;5050137;28;20029;-59
2022/07/10 10:50:42;;;;;;;3.60;1.55;;;18.20;99.90;;;;;;5050746;28;20104;-59
2022/07/10 10:53:27;;;;;;;5.32;1.95;;;18.40;99.90;;;;;;5049962;28;20025;-59
2022/07/10 10:56:06;;;;;;;4.32;2.00;;;18.40;99.90;;;;;;5049657;28;20095;-61
2022/07/10 10:58:45;;;;;;;8.20;2.15;;;18.40;99.90;;;;;;5049546;28;20029;-61
2022/07/10 11:01:20;;;;;;;4.63;2.33;;;18.60;99.90;;;;;;5049964;28;20083;-60
2022/07/10 11:04:04;;;;;;;3.95;2.03;;;18.80;99.90;;;;;;5049372;28;20033;-62
2022/07/10 11:06:49;;;;;;;9.07;2.60;;;19.00;99.90;;;;;;5049953;28;20036;-61
2022/07/10 11:09:31;;;;;;;6.00;2.20;;;18.90;99.90;;;;;;5049189;28;20029;-62
2022/07/10 11:12:17;;;;;;;4.22;1.85;;;18.50;99.90;;;;;;5048904;28;20151;-60
2022/07/10 11:14:49;;;;;;;3.50;2.00;;;18.30;99.90;;;;;;5049870;28;20055;-60
2022/07/10 11:17:14;;;;;;;4.78;2.20;;;18.20;99.90;;;;;;5049541;28;20025;-60
2022/07/10 11:19:40;;;;;;;3.80;1.80;;;18.30;99.90;;;;;;5049962;28;20653;-60
2022/07/10 11:22:29;;;;;;;3.53;2.10;;;18.30;99.90;;;;;;5049006;28;20025;-62
2022/07/10 11:25:16;;;;;;;12.45;2.75;;;18.20;99.90;;;;;;5049355;28;20584;-61
2022/07/10 11:27:54;;;;;;;6.05;2.90;;;18.00;99.90;;;;;;5049815;28;20025;-62
2022/07/10 11:30:19;;;;;;;6.18;2.90;;;18.00;99.90;;;;;;5050057;28;20025;-61
2022/07/10 11:32:45;;;;;;;4.65;2.83;;;17.90;99.90;;;;;;5049586;28;20021;-59
2022/07/10 11:35:12;;;;;;;10.75;3.47;;;17.80;99.90;;;;;;5049051;28;20084;-61
2022/07/10 11:37:50;;;;;;;5.07;3.10;;;17.80;99.90;;;;;;5049521;28;20107;-60
2022/07/10 11:40:16;;;;;;;12.10;3.03;;;17.90;99.90;;;;;;5049369;28;20254;-61
2022/07/10 11:42:58;;;;;;;7.68;2.47;;;18.00;99.90;;;;;;5049251;28;20099;-59
2022/07/10 11:45:31;;;;;;;13.63;3.30;;;17.90;99.90;;;;;;5049576;28;20406;-59
2022/07/10 11:47:58;;;;;;;10.82;2.55;;;17.80;99.90;;;;;;5049558;28;20093;-58
2022/07/10 11:50:24;;;;;;;10.63;2.92;;;17.80;99.90;;;;;;5049620;28;20096;-58
2022/07/10 11:52:53;;;;;;;6.13;2.28;;;17.60;99.90;;;;;;5048281;28;20051;-58
2022/07/10 11:55:21;;;;;;;6.22;2.25;;;17.70;99.90;;;;;;5049464;28;20507;-58
2022/07/10 11:57:50;;;;;;;4.00;2.35;;;17.80;99.90;;;;;;5049698;28;20037;-59
2022/07/10 12:00:29;;;;;;;6.07;1.80;;;17.80;99.90;;;;;;5049428;28;20029;-59
2022/07/10 12:02:57;;;;;;;3.28;1.75;;;17.90;99.90;;;;;;5048803;28;20029;-57
2022/07/10 12:05:32;;;;;;;3.13;1.30;;;17.90;99.90;;;;;;5049037;28;20540;-57
2022/07/10 12:07:57;;;;;;;3.75;1.42;;;18.00;99.90;;;;;;5049507;28;20021;-59
2022/07/10 12:10:27;;;;;;;4.00;1.55;;;18.00;99.90;;;;;;5051752;28;20510;-60
2022/07/10 12:12:53;;;;;;;1.40;1.30;;;18.10;99.90;;;;;;5054819;28;20105;-61
2022/07/10 12:15:34;;;;;;;6.15;1.27;;;18.20;99.90;;;;;;5053406;28;20057;-61
2022/07/10 12:18:00;;;;;;;1.70;0.90;;;18.20;99.90;;;;;;5052806;28;20056;-62
2022/07/10 12:20:26;;;;;;;4.68;1.38;;;18.20;99.90;;;;;;5053045;28;20071;-61
2022/07/10 12:22:54;;;;;;;6.18;1.45;;;18.30;99.90;;;;;;5052163;28;20032;-61
2022/07/10 12:25:20;;;;;;;3.97;1.48;;;18.20;99.90;;;;;;5052762;28;20036;-62
2022/07/10 12:27:45;;;;;;;3.50;1.20;;;18.10;99.90;;;;;;5034990;28;20030;-62
2022/07/10 12:30:11;;;;;;;2.50;1.25;;;18.10;99.90;;;;;;5052596;28;20544;-62
2022/07/10 12:32:37;;;;;;;3.25;1.08;;;18.00;99.90;;;;;;5052867;28;20547;-61
2022/07/10 12:35:03;;;;;;;1.42;1.17;;;17.90;99.90;;;;;;5052681;28;20029;-62
2022/07/10 12:37:28;;;;;;;5.50;1.23;;;17.90;99.90;;;;;;5052152;28;20071;-62
2022/07/10 12:39:54;;;;;;;2.45;1.35;;;17.90;99.90;;;;;;5052835;28;20029;-62
2022/07/10 12:42:30;;;;;;;2.67;1.27;;;17.90;99.90;;;;;;5052436;28;20021;-61
2022/07/10 12:45:12;;;;;;;2.08;1.13;;;17.80;99.90;;;;;;5052408;28;20025;-60
2022/07/10 12:47:48;;;;;;;3.20;1.02;;;17.70;99.90;;;;;;5052558;28;20078;-60
2022/07/10 12:50:16;;;;;;;3.67;1.58;;;17.70;99.90;;;;;;5051967;28;20449;-58
2022/07/10 12:52:41;;;;;;;3.00;1.38;;;17.70;99.90;;;;;;5052198;28;20028;-59
2022/07/10 12:55:22;;;;;;;4.20;1.50;;;17.70;99.90;;;;;;5052475;28;20033;-58
2022/07/10 12:57:57;;;;;;;2.53;1.50;;;17.70;99.90;;;;;;5052460;28;20025;-59
2022/07/10 13:00:29;;;;;;;2.25;1.48;;;17.80;99.90;;;;;;5052809;28;20082;-59